createdAt,value
2022-12-15T00:00:25.321Z,-6.40
2022-12-15T00:03:11.601Z,-6.30
2022-12-15T00:08:45.101Z,-6.20
2022-12-15T00:11:31.423Z,-6.20
2022-12-15T00:14:17.751Z,-6.20
2022-12-15T00:17:04.260Z,-6.20
2022-12-15T00:19:50.339Z,-6.50
2022-12-15T00:22:36.544Z,-6.60
2022-12-15T00:25:22.847Z,-6.70
2022-12-15T00:28:09.399Z,-6.80
2022-12-15T00:31:02.103Z,-6.80
2022-12-15T00:33:49.188Z,-6.80
2022-12-15T00:36:35.470Z,-6.90
2022-12-15T00:39:04.404Z,-6.90
2022-12-15T00:41:32.180Z,-7.10
2022-12-15T00:44:00.126Z,-7.10
2022-12-15T00:46:46.335Z,-7.10
2022-12-15T00:49:33.473Z,-7.30
2022-12-15T00:52:19.714Z,-7.30
2022-12-15T00:55:05.952Z,-7.30
2022-12-15T00:57:52.418Z,-7.50
2022-12-15T01:00:40.197Z,-7.50
2022-12-15T01:03:40.178Z,-7.50
2022-12-15T01:06:33.432Z,-7.50
2022-12-15T01:09:20.248Z,-7.40
2022-12-15T01:12:06.568Z,-7.40
2022-12-15T01:14:53.883Z,-7.50
2022-12-15T01:17:40.401Z,-7.50
2022-12-15T01:20:21.687Z,-7.60
2022-12-15T01:22:54.627Z,-7.70
2022-12-15T01:25:25.865Z,-7.80
2022-12-15T01:27:54.910Z,-7.80
2022-12-15T01:30:25.352Z,-7.80
2022-12-15T01:32:53.812Z,-7.80
2022-12-15T01:35:22.180Z,-7.80
2022-12-15T01:37:50.382Z,-7.80
2022-12-15T01:40:38.791Z,-7.80
2022-12-15T01:43:16.258Z,-7.80
2022-12-15T01:46:11.860Z,-7.70
2022-12-15T01:48:48.628Z,-7.60
2022-12-15T01:51:40.347Z,-7.70
2022-12-15T01:54:23.512Z,-7.60
2022-12-15T01:56:55.618Z,-7.70
2022-12-15T01:59:30.021Z,-7.70
2022-12-15T02:01:57.928Z,-7.70
2022-12-15T02:04:25.938Z,-7.80
2022-12-15T02:06:53.699Z,-7.80
2022-12-15T02:09:22.175Z,-7.80
2022-12-15T02:12:11.906Z,-7.90
2022-12-15T02:15:04.265Z,-7.80
2022-12-15T02:18:05.191Z,-7.80
2022-12-15T02:20:53.560Z,-7.90
2022-12-15T02:23:36.401Z,-7.90
2022-12-15T02:26:25.831Z,-7.90
2022-12-15T02:29:10.989Z,-8.00
2022-12-15T02:31:50.065Z,-8.00
2022-12-15T02:34:43.347Z,-8.10
2022-12-15T02:37:20.828Z,-8.10
2022-12-15T02:39:48.796Z,-8.10
2022-12-15T02:42:17.259Z,-8.20
2022-12-15T02:44:50.270Z,-7.60
2022-12-15T02:47:22.326Z,-8.30
2022-12-15T02:50:43.270Z,-8.30
2022-12-15T02:53:21.362Z,-8.30
2022-12-15T02:56:33.944Z,-8.40
2022-12-15T02:59:25.763Z,-8.40
2022-12-15T03:02:03.161Z,-8.40
2022-12-15T03:04:33.925Z,-8.40
2022-12-15T03:07:05.669Z,-8.40
2022-12-15T03:09:34.542Z,-8.40
2022-12-15T03:12:02.262Z,-8.40
2022-12-15T03:14:30.528Z,-8.40
2022-12-15T03:16:58.084Z,-8.40
2022-12-15T03:19:27.354Z,-8.50
2022-12-15T03:21:54.920Z,-8.50
2022-12-15T03:24:24.042Z,-8.60
2022-12-15T03:26:52.064Z,-8.60
2022-12-15T03:29:20.392Z,-8.60
2022-12-15T03:31:49.948Z,-8.60
2022-12-15T03:34:18.191Z,-8.70
2022-12-15T03:36:46.245Z,-8.90
2022-12-15T03:39:14.229Z,-8.70
2022-12-15T03:41:42.366Z,-8.70
2022-12-15T03:44:10.163Z,-8.80
2022-12-15T03:46:39.261Z,-8.80
2022-12-15T03:49:07.285Z,-8.80
2022-12-15T03:54:03.054Z,-8.70
2022-12-15T03:56:30.835Z,-8.60
2022-12-15T03:58:58.534Z,-8.80
2022-12-15T04:01:31.664Z,-8.50
2022-12-15T04:04:01.664Z,-8.60
2022-12-15T04:06:30.893Z,-8.60
2022-12-15T04:08:58.604Z,-8.70
2022-12-15T04:11:26.489Z,-8.80
2022-12-15T04:13:54.239Z,-8.70
2022-12-15T04:16:21.822Z,-8.70
2022-12-15T04:19:09.584Z,-8.80
2022-12-15T04:21:37.204Z,-8.80
2022-12-15T04:24:24.949Z,-10.60
2022-12-15T04:27:12.336Z,-8.90
2022-12-15T04:29:58.416Z,-8.80
2022-12-15T04:32:44.701Z,-8.80
2022-12-15T04:38:23.393Z,-8.70
2022-12-15T04:41:10.767Z,-8.80
2022-12-15T04:43:58.637Z,-8.70
2022-12-15T04:46:45.209Z,-8.80
2022-12-15T04:49:31.746Z,-8.70
2022-12-15T04:52:17.874Z,-8.60
2022-12-15T04:55:04.504Z,-8.60
2022-12-15T04:57:50.650Z,-8.60
2022-12-15T05:03:25.751Z,-8.70
2022-12-15T05:06:12.442Z,-8.80
2022-12-15T05:08:58.471Z,-8.70
2022-12-15T05:11:44.628Z,-8.70
2022-12-15T05:17:17.770Z,-8.80
2022-12-15T05:22:51.383Z,-8.70
2022-12-15T05:25:38.585Z,-8.70
2022-12-15T05:28:25.952Z,-8.80
2022-12-15T05:31:12.254Z,-8.70
2022-12-15T05:36:09.712Z,-8.90
2022-12-15T05:38:37.240Z,-8.40
2022-12-15T05:41:05.110Z,-8.90
2022-12-15T05:43:33.517Z,-8.70
2022-12-15T05:46:05.079Z,-8.80
2022-12-15T05:48:32.849Z,-8.70
2022-12-15T05:51:10.406Z,-8.70
2022-12-15T05:53:39.108Z,-8.60
2022-12-15T05:56:12.517Z,-6.90
2022-12-15T05:58:45.083Z,-8.80
2022-12-15T06:01:16.558Z,-8.80
2022-12-15T06:03:44.736Z,-8.70
2022-12-15T06:06:13.452Z,-8.60
2022-12-15T06:08:42.931Z,-8.50
2022-12-15T06:11:13.345Z,-8.50
2022-12-15T06:13:41.583Z,-8.50
2022-12-15T06:16:15.574Z,-8.50
2022-12-15T06:18:50.172Z,-8.60
2022-12-15T06:21:20.251Z,-8.60
2022-12-15T06:23:48.216Z,-8.70
2022-12-15T06:26:23.283Z,-8.70
2022-12-15T06:28:51.922Z,-8.70
2022-12-15T06:31:25.546Z,-8.80
2022-12-15T06:34:01.070Z,-8.80
2022-12-15T06:36:31.057Z,-8.80
2022-12-15T06:39:01.023Z,-8.80
2022-12-15T06:41:32.766Z,-8.80
2022-12-15T06:44:01.250Z,-8.80
2022-12-15T06:46:31.275Z,-8.90
2022-12-15T06:48:59.673Z,-9.00
2022-12-15T06:51:28.378Z,-8.90
2022-12-15T06:53:56.702Z,-9.00
2022-12-15T06:56:34.830Z,-9.00
2022-12-15T06:59:05.185Z,-8.30
2022-12-15T07:01:33.906Z,-9.00
2022-12-15T07:06:36.406Z,-8.90
2022-12-15T07:09:07.586Z,-8.90
2022-12-15T07:11:35.421Z,-8.80
2022-12-15T07:14:03.305Z,-8.80
2022-12-15T07:16:31.266Z,-8.80
2022-12-15T07:18:59.023Z,-8.80
2022-12-15T07:21:26.739Z,-8.90
2022-12-15T07:23:56.368Z,-8.80
2022-12-15T07:26:27.141Z,-8.90
2022-12-15T07:28:56.335Z,-8.90
2022-12-15T07:31:25.778Z,-9.00
2022-12-15T07:33:56.161Z,-9.00
2022-12-15T07:36:23.979Z,-9.00
2022-12-15T07:38:51.986Z,-9.00
2022-12-15T07:41:20.741Z,-9.00
2022-12-15T07:43:48.874Z,-9.00
2022-12-15T07:46:18.430Z,-9.00
2022-12-15T07:48:50.344Z,-9.00
2022-12-15T07:51:21.938Z,-9.10
2022-12-15T07:53:51.159Z,-8.90
2022-12-15T07:56:20.838Z,-8.90
2022-12-15T07:58:50.782Z,-9.00
2022-12-15T08:01:18.720Z,-8.90
2022-12-15T08:03:46.750Z,-8.90
2022-12-15T08:06:15.480Z,-8.90
2022-12-15T08:08:50.732Z,-8.90
2022-12-15T08:11:22.680Z,-9.00
2022-12-15T08:14:10.527Z,-9.00
2022-12-15T08:16:40.295Z,-9.00
2022-12-15T08:19:13.914Z,-9.00
2022-12-15T08:21:43.075Z,-9.00
2022-12-15T08:24:11.103Z,-8.90
2022-12-15T08:26:40.879Z,-8.90
2022-12-15T08:29:48.990Z,-9.00
2022-12-15T08:32:00.477Z,-8.90
2022-12-15T08:34:28.169Z,-8.90
2022-12-15T08:36:55.860Z,-8.80
2022-12-15T08:39:23.802Z,-8.80
2022-12-15T08:41:51.530Z,-8.80
2022-12-15T08:44:19.152Z,-8.70
2022-12-15T08:46:47.092Z,-8.60
2022-12-15T08:49:21.135Z,-8.60
2022-12-15T08:51:50.673Z,-8.60
2022-12-15T08:54:19.677Z,-8.70
2022-12-15T08:56:48.463Z,-8.50
2022-12-15T08:59:16.614Z,-8.40
2022-12-15T09:01:44.417Z,-8.40
2022-12-15T09:04:12.266Z,-8.30
2022-12-15T09:06:40.091Z,-8.30
2022-12-15T09:09:10.462Z,-8.20
2022-12-15T09:11:38.198Z,-8.20
2022-12-15T09:14:07.137Z,-8.10
2022-12-15T09:16:35.141Z,-7.90
2022-12-15T09:19:02.708Z,-7.90
2022-12-15T09:21:32.665Z,-7.70
2022-12-15T09:24:02.275Z,-7.60
2022-12-15T09:26:32.928Z,-7.50
2022-12-15T09:29:02.195Z,-7.50
2022-12-15T09:31:32.870Z,-7.40
2022-12-15T09:34:01.489Z,-7.30
2022-12-15T09:36:32.558Z,-7.20
2022-12-15T09:39:02.451Z,-7.20
2022-12-15T09:41:35.323Z,-7.00
2022-12-15T09:44:11.094Z,-7.20
2022-12-15T09:47:05.981Z,-6.90
2022-12-15T09:49:57.254Z,-6.80
2022-12-15T09:52:36.058Z,-6.70
2022-12-15T09:55:22.316Z,-6.60
2022-12-15T09:58:10.646Z,-6.60
2022-12-15T10:00:52.929Z,-6.40
2022-12-15T10:03:34.057Z,-6.40
2022-12-15T10:06:22.225Z,-6.10
2022-12-15T10:08:54.319Z,-6.10
2022-12-15T10:11:39.180Z,-5.90
2022-12-15T10:14:32.802Z,-5.70
2022-12-15T10:17:07.923Z,-5.70
2022-12-15T10:20:00.933Z,-5.30
2022-12-15T10:22:38.113Z,-5.20
2022-12-15T10:25:19.708Z,-5.00
2022-12-15T10:28:09.959Z,-4.70
2022-12-15T10:30:59.578Z,-4.20
2022-12-15T10:33:40.217Z,-4.20
2022-12-15T10:36:16.462Z,-3.70
2022-12-15T10:38:50.321Z,-3.70
2022-12-15T10:41:26.369Z,-3.40
2022-12-15T10:43:55.313Z,-3.30
2022-12-15T10:46:29.171Z,-3.20
2022-12-15T10:49:07.818Z,-3.10
2022-12-15T10:51:43.124Z,-2.90
2022-12-15T10:54:14.856Z,-2.50
2022-12-15T10:56:50.242Z,-2.20
2022-12-15T10:59:26.357Z,-2.00
2022-12-15T11:01:55.151Z,-1.90
2022-12-15T11:04:32.545Z,-1.90
2022-12-15T11:07:03.442Z,-1.70
2022-12-15T11:09:37.847Z,-1.70
2022-12-15T11:12:39.468Z,-1.70
2022-12-15T11:15:23.234Z,-1.60
2022-12-15T11:18:11.679Z,-1.50
2022-12-15T11:21:01.549Z,-1.50
2022-12-15T11:23:52.222Z,-1.40
2022-12-15T11:26:48.873Z,-1.40
2022-12-15T11:29:41.853Z,-1.40
2022-12-15T11:32:13.192Z,-1.30
2022-12-15T11:34:46.318Z,-1.30
2022-12-15T11:37:34.212Z,-1.20
2022-12-15T11:40:30.921Z,-1.10
2022-12-15T11:43:11.265Z,-1.00
2022-12-15T11:46:17.460Z,-0.90
2022-12-15T11:49:13.144Z,-0.70
2022-12-15T11:52:03.129Z,-0.70
2022-12-15T11:54:53.453Z,-0.70
2022-12-15T11:57:27.217Z,-0.70
2022-12-15T12:00:20.116Z,-0.60
2022-12-15T12:03:03.632Z,-0.60
2022-12-15T12:05:56.374Z,-0.50
2022-12-15T12:08:33.714Z,-0.40
2022-12-15T12:11:12.951Z,-0.40
2022-12-15T12:14:14.575Z,-0.30
2022-12-15T12:17:03.790Z,-0.20
2022-12-15T12:19:59.600Z,-0.10
2022-12-15T12:22:36.485Z,-0.10
2022-12-15T12:25:10.173Z,-0.10
2022-12-15T12:27:48.797Z,-0.10
2022-12-15T12:30:21.666Z,-0.10
2022-12-15T12:32:50.538Z,0.10
2022-12-15T12:35:38.345Z,0.20
2022-12-15T12:38:09.836Z,0.20
2022-12-15T12:40:40.576Z,0.20
2022-12-15T12:43:14.032Z,0.20
2022-12-15T12:45:50.247Z,2.30
2022-12-15T12:48:33.877Z,0.30
2022-12-15T12:51:24.580Z,0.30
2022-12-15T12:53:53.144Z,0.30
2022-12-15T12:56:33.029Z,0.50
2022-12-15T12:59:01.235Z,0.50
2022-12-15T13:01:33.376Z,1.50
2022-12-15T13:04:07.739Z,0.60
2022-12-15T13:06:35.626Z,0.60
2022-12-15T13:09:21.435Z,0.60
2022-12-15T13:11:53.099Z,2.60
2022-12-15T13:14:31.360Z,0.70
2022-12-15T13:17:25.966Z,0.80
2022-12-15T13:20:03.167Z,0.80
2022-12-15T13:22:38.038Z,0.80
2022-12-15T13:25:27.650Z,0.80
2022-12-15T13:28:00.653Z,0.70
2022-12-15T13:30:28.598Z,0.80
2022-12-15T13:33:16.591Z,0.80
2022-12-15T13:35:44.527Z,0.80
2022-12-15T13:38:20.879Z,0.70
2022-12-15T13:43:27.648Z,0.60
2022-12-15T13:46:11.832Z,0.60
2022-12-15T13:48:54.279Z,0.50
2022-12-15T13:51:35.317Z,0.60
2022-12-15T13:54:15.555Z,0.60
2022-12-15T13:57:01.262Z,0.60
2022-12-15T13:59:43.261Z,0.60
2022-12-15T14:02:32.126Z,0.60
2022-12-15T14:05:23.131Z,0.50
2022-12-15T14:07:55.019Z,0.40
2022-12-15T14:10:37.626Z,0.40
2022-12-15T14:13:17.506Z,0.40
2022-12-15T14:15:58.869Z,0.30
2022-12-15T14:18:36.630Z,0.30
2022-12-15T14:21:23.020Z,0.20
2022-12-15T14:26:38.410Z,0.00
2022-12-15T14:29:06.719Z,-0.10
2022-12-15T14:31:37.769Z,-0.10
2022-12-15T14:34:21.905Z,0.50
2022-12-15T14:36:50.886Z,0.00
2022-12-15T14:39:43.597Z,0.00
2022-12-15T14:42:27.975Z,0.00
2022-12-15T14:44:58.383Z,2.80
2022-12-15T14:47:30.978Z,0.10
2022-12-15T14:50:01.499Z,-0.10
2022-12-15T14:52:37.130Z,0.10
2022-12-15T14:55:37.035Z,0.00
2022-12-15T14:58:23.751Z,0.00
2022-12-15T15:00:54.425Z,2.30
2022-12-15T15:03:27.659Z,-0.20
2022-12-15T15:06:00.132Z,-0.20
2022-12-15T15:08:35.703Z,-0.20
2022-12-15T15:11:18.459Z,-0.20
2022-12-15T15:13:47.118Z,2.70
2022-12-15T15:16:18.329Z,-0.30
2022-12-15T15:18:51.430Z,-0.30
2022-12-15T15:21:23.964Z,-0.40
2022-12-15T15:24:00.266Z,-0.50
2022-12-15T15:26:29.019Z,-0.50
2022-12-15T15:28:57.467Z,-0.50
2022-12-15T15:31:26.084Z,-0.50
2022-12-15T15:33:57.219Z,-0.60
2022-12-15T15:38:46.997Z,-0.60
2022-12-15T15:41:19.962Z,-0.60
2022-12-15T15:43:49.380Z,-0.60
2022-12-15T15:46:29.463Z,-0.70
2022-12-15T15:49:04.082Z,-0.80
2022-12-15T15:51:33.184Z,-0.90
2022-12-15T15:54:05.702Z,-1.00
2022-12-15T15:56:33.601Z,-1.00
2022-12-15T15:59:11.786Z,-1.00
2022-12-15T16:01:39.919Z,-1.00
2022-12-15T16:04:08.063Z,-1.00
2022-12-15T16:06:36.422Z,-1.00
2022-12-15T16:09:07.230Z,-1.10
2022-12-15T16:11:35.398Z,-1.10
2022-12-15T16:14:03.915Z,-1.20
2022-12-15T16:16:33.293Z,-1.30
2022-12-15T16:19:00.861Z,-1.40
2022-12-15T16:21:28.875Z,-1.50
2022-12-15T16:23:58.183Z,-1.60
2022-12-15T16:26:37.658Z,-1.70
2022-12-15T16:29:16.726Z,-1.70
2022-12-15T16:31:45.869Z,-1.70
2022-12-15T16:34:16.750Z,-1.70
2022-12-15T16:36:45.585Z,-1.70
2022-12-15T16:39:29.172Z,-1.70
2022-12-15T16:41:57.884Z,-1.80
2022-12-15T16:44:27.200Z,-1.70
2022-12-15T16:46:55.428Z,-1.70
2022-12-15T16:49:23.094Z,-1.80
2022-12-15T16:51:53.344Z,-1.80
2022-12-15T16:54:25.355Z,-1.90
2022-12-15T16:56:58.076Z,-2.00
2022-12-15T16:59:34.290Z,-2.10
2022-12-15T17:02:28.567Z,-2.30
2022-12-15T17:04:56.712Z,-2.30
2022-12-15T17:07:27.752Z,-2.30
2022-12-15T17:12:24.046Z,-2.40
2022-12-15T17:14:51.968Z,-2.70
2022-12-15T17:17:19.993Z,-2.70
2022-12-15T17:20:28.450Z,-2.80
2022-12-15T17:22:37.472Z,-2.90
2022-12-15T17:25:05.624Z,-3.00
2022-12-15T17:27:33.480Z,-3.00
2022-12-15T17:30:01.980Z,-3.10
2022-12-15T17:32:29.684Z,-3.20
2022-12-15T17:34:57.420Z,-3.30
2022-12-15T17:37:28.021Z,-3.40
2022-12-15T17:39:58.301Z,-3.50
2022-12-15T17:42:26.098Z,-3.50
2022-12-15T17:44:54.138Z,-3.60
2022-12-15T17:47:24.472Z,-3.60
2022-12-15T17:49:53.901Z,-3.70
2022-12-15T17:52:27.443Z,-3.70
2022-12-15T17:54:56.058Z,-3.60
2022-12-15T17:57:25.657Z,-3.60
2022-12-15T17:59:53.572Z,-3.60
2022-12-15T18:02:21.310Z,-3.70
2022-12-15T18:04:49.220Z,-3.70
2022-12-15T18:07:22.653Z,-3.80
2022-12-15T18:09:52.488Z,-3.90
2022-12-15T18:12:22.799Z,-3.90
2022-12-15T18:14:50.811Z,-4.00
2022-12-15T18:17:18.568Z,-4.00
2022-12-15T18:19:46.606Z,-2.00
2022-12-15T18:22:22.468Z,-4.00
2022-12-15T18:24:52.675Z,-4.00
2022-12-15T18:27:25.162Z,-4.00
2022-12-15T18:29:53.648Z,-4.00
2022-12-15T18:32:25.492Z,-4.10
2022-12-15T18:34:54.038Z,-4.00
2022-12-15T18:37:25.202Z,-4.10
2022-12-15T18:39:53.364Z,-1.90
2022-12-15T18:42:23.796Z,-2.50
2022-12-15T18:44:52.978Z,-4.20
2022-12-15T18:47:23.561Z,-4.20
2022-12-15T18:49:51.603Z,-4.30
2022-12-15T18:52:22.454Z,-4.40
2022-12-15T18:54:51.860Z,-4.40
2022-12-15T18:57:28.371Z,-4.40
2022-12-15T19:00:02.023Z,-4.30
2022-12-15T19:04:58.484Z,-4.30
2022-12-15T19:07:26.132Z,-4.40
2022-12-15T19:09:53.993Z,-4.40
2022-12-15T19:12:22.019Z,-4.50
2022-12-15T19:14:51.568Z,-4.50
2022-12-15T19:17:40.374Z,-4.50
2022-12-15T19:20:34.970Z,-4.50
2022-12-15T19:23:02.761Z,-4.40
2022-12-15T19:25:31.902Z,-2.90
2022-12-15T19:28:00.980Z,-4.40
2022-12-15T19:30:31.266Z,-4.40
2022-12-15T19:32:59.171Z,-4.40
2022-12-15T19:35:28.435Z,-4.50
2022-12-15T19:38:00.744Z,-4.60
2022-12-15T19:40:31.418Z,-4.60
2022-12-15T19:43:00.571Z,-4.70
2022-12-15T19:45:31.910Z,-4.80
2022-12-15T19:48:00.805Z,-4.80
2022-12-15T19:50:38.887Z,-4.80
2022-12-15T19:53:30.172Z,-4.70
2022-12-15T19:56:01.403Z,-4.60
2022-12-15T19:58:35.258Z,-4.60
2022-12-15T20:01:07.197Z,-4.60
2022-12-15T20:03:36.618Z,-4.60
2022-12-15T20:06:14.403Z,-4.60
2022-12-15T20:08:45.860Z,-4.60
2022-12-15T20:11:21.399Z,-4.60
2022-12-15T20:13:50.585Z,-4.70
2022-12-15T20:16:19.447Z,-4.70
2022-12-15T20:18:54.662Z,-4.80
2022-12-15T20:21:26.689Z,-4.90
2022-12-15T20:24:27.409Z,-4.80
2022-12-15T20:26:56.472Z,-4.80
2022-12-15T20:29:25.766Z,-3.50
2022-12-15T20:31:54.415Z,-4.80
2022-12-15T20:34:23.451Z,-4.80
2022-12-15T20:36:51.950Z,-4.80
2022-12-15T20:39:29.449Z,-4.80
2022-12-15T20:41:58.302Z,-4.90
2022-12-15T20:44:26.011Z,-5.00
2022-12-15T20:49:23.193Z,-5.10
2022-12-15T20:51:52.026Z,-5.20
2022-12-15T20:54:22.588Z,-5.20
2022-12-15T20:56:50.933Z,-5.20
2022-12-15T20:59:19.108Z,-5.20
2022-12-15T21:01:47.220Z,-5.20
2022-12-15T21:04:27.895Z,-5.10
2022-12-15T21:06:56.269Z,-5.10
2022-12-15T21:09:24.582Z,-5.00
2022-12-15T21:11:54.520Z,-4.90
2022-12-15T21:14:23.667Z,-4.90
2022-12-15T21:19:21.273Z,-4.90
2022-12-15T21:21:54.891Z,-5.00
2022-12-15T21:24:25.484Z,-5.10
2022-12-15T21:26:53.813Z,-5.20
2022-12-15T21:29:27.928Z,-5.30
2022-12-15T21:31:55.593Z,-5.30
2022-12-15T21:36:54.829Z,-5.40
2022-12-15T21:39:29.810Z,-5.40
2022-12-15T21:42:08.474Z,-5.40
2022-12-15T21:44:36.107Z,-5.40
2022-12-15T21:47:22.808Z,-5.40
2022-12-15T21:49:50.675Z,-5.50
2022-12-15T21:52:19.715Z,-5.60
2022-12-15T21:54:47.724Z,-5.60
2022-12-15T21:57:15.220Z,-5.60
2022-12-15T21:59:43.043Z,-5.70
2022-12-15T22:02:23.041Z,-5.90
2022-12-15T22:07:19.821Z,-5.90
2022-12-15T22:12:20.115Z,-5.90
2022-12-15T22:14:47.955Z,-5.80
2022-12-15T22:17:20.259Z,-5.80
2022-12-15T22:19:47.809Z,-5.90
2022-12-15T22:22:16.610Z,-5.90
2022-12-15T22:24:44.927Z,-6.00
2022-12-15T22:27:20.919Z,-6.00
2022-12-15T22:29:52.010Z,-6.00
2022-12-15T22:32:19.574Z,-6.10
2022-12-15T22:37:15.813Z,-6.10
2022-12-15T22:39:43.575Z,-6.10
2022-12-15T22:42:16.340Z,-6.10
2022-12-15T22:44:45.043Z,-6.20
2022-12-15T22:47:12.684Z,-6.10
2022-12-15T22:49:41.213Z,-6.10
2022-12-15T22:52:22.793Z,-6.10
2022-12-15T22:54:50.846Z,-6.10
2022-12-15T22:57:22.754Z,-6.10
2022-12-15T23:00:03.531Z,-6.10
2022-12-15T23:02:36.124Z,-6.20
2022-12-15T23:05:05.719Z,-6.30
2022-12-15T23:07:34.480Z,-6.30
2022-12-15T23:10:22.194Z,-6.40
2022-12-15T23:12:54.636Z,-6.40
2022-12-15T23:15:45.659Z,-6.50
2022-12-15T23:18:13.724Z,-6.50
2022-12-15T23:20:41.433Z,-6.50
2022-12-15T23:23:10.052Z,-6.50
2022-12-15T23:25:38.100Z,-6.50
2022-12-15T23:28:05.805Z,-6.60
2022-12-15T23:30:33.629Z,-6.50
2022-12-15T23:33:01.173Z,-6.50
2022-12-15T23:35:28.739Z,-6.50
2022-12-15T23:37:57.874Z,-6.50
2022-12-15T23:40:25.497Z,-6.50
2022-12-15T23:45:21.605Z,-6.60
2022-12-15T23:47:49.219Z,-6.60
2022-12-15T23:50:17.207Z,-6.60
2022-12-15T23:52:44.823Z,-6.70
2022-12-15T23:55:12.478Z,-6.70
2022-12-15T23:57:40.150Z,-6.70
